createdAt,value
2022-10-08T15:09:06.842Z,15.50
2022-10-08T15:11:34.803Z,14.90
2022-10-08T15:14:02.873Z,14.80
2022-10-08T15:16:30.871Z,14.70
2022-10-08T15:18:59.081Z,14.80
2022-10-08T15:21:27.239Z,14.80
2022-10-08T15:23:57.790Z,14.80
2022-10-08T15:26:26.053Z,14.80
2022-10-08T15:28:54.647Z,14.80
2022-10-08T15:31:25.034Z,14.90
2022-10-08T15:33:54.735Z,14.80
2022-10-08T15:36:24.802Z,14.70
2022-10-08T15:38:58.903Z,14.70
2022-10-08T15:41:27.692Z,14.70
2022-10-08T15:43:56.086Z,14.60
2022-10-08T15:46:26.070Z,14.60
2022-10-08T15:48:55.493Z,14.60
2022-10-08T15:51:25.010Z,14.50
2022-10-08T15:53:52.946Z,14.50
2022-10-08T15:56:22.199Z,14.50
2022-10-08T15:58:51.399Z,14.50
2022-10-08T16:01:21.300Z,14.40
2022-10-08T16:03:51.160Z,14.40
2022-10-08T16:06:21.165Z,14.30
2022-10-08T16:08:49.290Z,14.30
2022-10-08T16:11:19.706Z,14.30
2022-10-08T16:13:50.762Z,14.20
2022-10-08T16:16:19.504Z,14.20
2022-10-08T16:18:50.963Z,14.10
2022-10-08T16:21:21.101Z,14.00
2022-10-08T16:23:49.241Z,14.00
2022-10-08T16:26:20.717Z,13.90
2022-10-08T16:28:52.169Z,13.80
2022-10-08T16:31:20.528Z,13.70
2022-10-08T17:16:07.301Z,13.70
2022-10-08T17:18:35.518Z,11.90
2022-10-08T17:21:05.938Z,11.80
2022-10-08T17:23:38.077Z,11.70
2022-10-08T17:26:08.394Z,11.60
2022-10-08T17:28:38.573Z,11.60
2022-10-08T17:31:08.348Z,11.50
2022-10-08T17:33:36.524Z,11.50
2022-10-08T17:36:08.383Z,11.50
2022-10-08T17:38:37.215Z,11.40
2022-10-08T17:41:11.813Z,11.30
2022-10-08T17:43:39.847Z,11.20
2022-10-08T17:46:09.495Z,11.10
2022-10-08T17:48:37.584Z,11.00
2022-10-08T17:51:08.618Z,11.00
2022-10-08T17:53:36.541Z,10.90
2022-10-08T17:56:07.022Z,10.90
2022-10-08T17:58:35.044Z,10.90
2022-10-08T18:01:08.811Z,10.80
2022-10-08T18:03:38.209Z,10.70
2022-10-08T18:06:09.288Z,10.60
2022-10-08T18:08:39.162Z,10.50
2022-10-08T18:11:08.839Z,10.50
2022-10-08T18:13:37.455Z,10.40
2022-10-08T18:16:05.882Z,10.30
2022-10-08T18:18:33.953Z,10.30
2022-10-08T18:21:02.365Z,10.30
2022-10-08T18:23:32.871Z,10.20
2022-10-08T18:26:12.690Z,10.20
2022-10-08T18:28:40.715Z,10.10
2022-10-08T18:31:11.527Z,10.10
2022-10-08T18:33:41.391Z,10.10
2022-10-08T18:36:11.247Z,10.10
2022-10-08T18:38:40.670Z,10.00
2022-10-08T18:41:16.898Z,10.00
2022-10-08T18:43:46.048Z,9.90
2022-10-08T18:46:14.637Z,9.90
2022-10-08T18:48:42.879Z,9.80
2022-10-08T18:51:12.640Z,9.80
2022-10-08T18:53:43.386Z,9.80
2022-10-08T18:56:13.709Z,9.80
2022-10-08T18:58:41.790Z,9.70
2022-10-08T19:01:18.186Z,9.80
2022-10-08T19:03:47.495Z,9.70
2022-10-08T20:48:37.502Z,9.70
2022-10-08T22:03:28.464Z,8.50
2022-10-08T22:48:11.881Z,8.10
2022-10-08T22:50:39.900Z,7.90
2022-10-08T23:13:00.906Z,7.80
2022-10-08T23:30:41.592Z,7.40
